createdAt,value
2018-03-04T00:00:51.527Z,26.10
2018-03-04T00:01:51.477Z,26.60
2018-03-04T00:02:51.467Z,27.30
2018-03-04T00:03:51.457Z,27.40
2018-03-04T00:04:51.448Z,26.40
2018-03-04T00:05:51.475Z,26.80
2018-03-04T00:06:51.427Z,25.60
2018-03-04T00:07:51.417Z,29.50
2018-03-04T00:08:51.408Z,26.10
2018-03-04T00:09:51.397Z,25.30
2018-03-04T00:10:51.426Z,26.30
2018-03-04T00:11:51.376Z,26.10
2018-03-04T00:12:51.365Z,26.90
2018-03-04T00:13:51.355Z,28.60
2018-03-04T00:14:51.346Z,27.80
2018-03-04T00:15:51.380Z,28.20
2018-03-04T00:16:51.325Z,28.50
2018-03-04T00:17:51.315Z,26.90
2018-03-04T00:18:51.306Z,26.90
2018-03-04T00:19:51.332Z,27.10
2018-03-04T00:20:51.285Z,28.30
2018-03-04T00:21:51.317Z,27.50
2018-03-04T00:22:51.262Z,29.00
2018-03-04T00:23:51.251Z,27.80
2018-03-04T00:24:51.242Z,25.50
2018-03-04T00:25:51.234Z,30.30
2018-03-04T00:26:51.266Z,29.80
2018-03-04T00:27:51.213Z,36.50
2018-03-04T00:28:51.203Z,29.30
2018-03-04T00:29:51.230Z,31.90
2018-03-04T00:30:51.183Z,31.10
2018-03-04T00:31:51.176Z,30.10
2018-03-04T00:32:51.209Z,28.70
2018-03-04T00:33:51.150Z,29.70
2018-03-04T00:34:51.138Z,28.00
2018-03-04T00:35:51.128Z,51.50
2018-03-04T00:36:51.118Z,46.00
2018-03-04T00:37:51.146Z,31.40
2018-03-04T00:38:51.096Z,25.70
2018-03-04T00:39:51.087Z,28.90
2018-03-04T00:40:51.075Z,28.80
2018-03-04T00:41:51.068Z,27.60
2018-03-04T00:42:51.100Z,26.80
2018-03-04T00:43:51.047Z,28.00
2018-03-04T00:44:51.079Z,27.80
2018-03-04T00:45:51.022Z,21.00
2018-03-04T00:46:51.014Z,26.80
2018-03-04T00:47:51.001Z,29.30
2018-03-04T00:48:51.035Z,28.10
2018-03-04T00:49:51.017Z,24.50
2018-03-04T00:50:50.971Z,24.20
2018-03-04T00:51:50.960Z,26.30
2018-03-04T00:52:50.948Z,27.50
2018-03-04T00:53:50.939Z,25.40
2018-03-04T00:54:50.969Z,26.70
2018-03-04T00:55:50.920Z,26.30
2018-03-04T00:56:50.909Z,25.70
2018-03-04T00:57:50.895Z,26.50
2018-03-04T00:58:50.886Z,24.00
2018-03-04T00:59:50.913Z,27.80
2018-03-04T01:00:50.863Z,28.90
2018-03-04T01:01:50.854Z,29.90
2018-03-04T01:02:50.846Z,27.60
2018-03-04T01:03:50.831Z,28.00
2018-03-04T01:04:50.861Z,28.70
2018-03-04T01:05:50.810Z,28.20
2018-03-04T01:06:50.799Z,28.90
2018-03-04T01:07:50.790Z,29.10
2018-03-04T01:08:50.778Z,28.10
2018-03-04T01:09:50.817Z,26.80
2018-03-04T01:10:50.761Z,27.00
2018-03-04T01:11:50.749Z,27.10
2018-03-04T01:12:50.739Z,26.60
2018-03-04T01:13:50.728Z,28.00
2018-03-04T01:14:50.755Z,28.50
2018-03-04T01:15:50.703Z,26.90
2018-03-04T01:16:50.701Z,28.70
2018-03-04T01:17:50.684Z,27.10
2018-03-04T01:18:50.674Z,27.20
2018-03-04T01:19:50.706Z,26.90
2018-03-04T01:20:50.657Z,27.20
2018-03-04T01:21:50.641Z,28.10
2018-03-04T01:22:50.634Z,27.20
2018-03-04T01:23:50.690Z,27.30
2018-03-04T01:24:50.612Z,27.70
2018-03-04T01:25:50.602Z,27.70
2018-03-04T01:26:50.593Z,29.20
2018-03-04T01:27:50.578Z,26.90
2018-03-04T01:28:50.571Z,27.50
2018-03-04T01:29:50.599Z,21.90
2018-03-04T01:30:50.548Z,26.70
2018-03-04T01:31:50.540Z,15.80
2018-03-04T01:32:50.528Z,27.60
2018-03-04T01:33:50.518Z,28.70
2018-03-04T01:34:50.571Z,24.30
2018-03-04T01:35:50.516Z,15.00
2018-03-04T01:36:50.494Z,25.90
2018-03-04T01:37:50.474Z,24.00
2018-03-04T01:38:50.463Z,17.90
2018-03-04T01:39:50.496Z,26.30
2018-03-04T01:40:50.442Z,26.60
2018-03-04T01:41:50.433Z,26.40
2018-03-04T01:42:50.423Z,26.30
2018-03-04T01:43:50.411Z,25.10
2018-03-04T01:44:50.438Z,23.90
2018-03-04T01:45:50.430Z,31.30
2018-03-04T01:46:50.376Z,33.00
2018-03-04T01:47:50.366Z,26.10
2018-03-04T01:48:50.359Z,28.30
2018-03-04T01:49:50.348Z,26.70
2018-03-04T01:50:50.380Z,27.50
2018-03-04T01:51:50.326Z,27.50
2018-03-04T01:52:50.315Z,26.10
2018-03-04T01:53:50.308Z,25.50
2018-03-04T01:54:50.340Z,26.40
2018-03-04T01:55:50.287Z,27.40
2018-03-04T01:56:50.272Z,27.00
2018-03-04T01:57:50.262Z,25.20
2018-03-04T01:58:50.254Z,28.40
2018-03-04T01:59:50.284Z,20.00
2018-03-04T02:00:50.230Z,27.40
2018-03-04T02:01:50.221Z,28.80
2018-03-04T02:02:50.214Z,26.70
2018-03-04T02:03:50.200Z,26.40
2018-03-04T02:04:50.234Z,29.20
2018-03-04T02:05:50.179Z,26.50
2018-03-04T02:06:50.166Z,25.20
2018-03-04T02:07:50.159Z,26.20
2018-03-04T02:08:50.173Z,25.10
2018-03-04T02:09:50.176Z,25.40
2018-03-04T02:10:50.171Z,18.70
2018-03-04T02:11:50.127Z,24.90
2018-03-04T02:12:50.107Z,26.50
2018-03-04T02:13:50.095Z,26.20
2018-03-04T02:14:50.090Z,24.40
2018-03-04T02:15:50.120Z,16.50
2018-03-04T02:16:50.066Z,25.00
2018-03-04T02:17:50.056Z,26.40
2018-03-04T02:18:50.044Z,23.40
2018-03-04T02:19:50.034Z,25.00
2018-03-04T02:20:50.069Z,25.90
2018-03-04T02:21:50.016Z,25.00
2018-03-04T02:22:50.004Z,26.20
2018-03-04T02:23:49.995Z,25.00
2018-03-04T02:24:49.982Z,25.00
2018-03-04T02:25:50.015Z,24.40
2018-03-04T02:26:49.964Z,24.30
2018-03-04T02:27:49.953Z,26.20
2018-03-04T02:28:49.947Z,22.10
2018-03-04T02:29:49.978Z,25.00
2018-03-04T02:30:49.968Z,26.50
2018-03-04T02:31:49.914Z,27.00
2018-03-04T02:32:49.911Z,22.50
2018-03-04T02:33:49.894Z,21.90
2018-03-04T02:34:49.885Z,25.40
2018-03-04T02:35:49.914Z,24.80
2018-03-04T02:36:49.866Z,18.30
2018-03-04T02:37:49.863Z,17.30
2018-03-04T02:38:49.856Z,29.00
2018-03-04T02:39:49.835Z,22.50
2018-03-04T02:40:49.869Z,27.30
2018-03-04T02:41:49.816Z,25.20
2018-03-04T02:42:49.806Z,28.20
2018-03-04T02:43:49.800Z,24.80
2018-03-04T02:44:49.789Z,20.40
2018-03-04T02:45:49.816Z,26.50
2018-03-04T02:46:49.770Z,12.10
2018-03-04T02:47:49.766Z,23.10
2018-03-04T02:48:49.750Z,25.40
2018-03-04T02:49:49.741Z,26.80
2018-03-04T02:50:49.775Z,26.20
2018-03-04T02:51:49.721Z,25.60
2018-03-04T02:52:49.713Z,25.90
2018-03-04T02:53:49.716Z,25.20
2018-03-04T02:54:49.703Z,25.80
2018-03-04T02:55:49.723Z,26.20
2018-03-04T02:56:49.713Z,26.80
2018-03-04T02:57:49.667Z,24.70
2018-03-04T02:58:49.654Z,27.00
2018-03-04T02:59:49.650Z,25.20
2018-03-04T03:00:49.641Z,25.70
2018-03-04T03:01:49.671Z,23.50
2018-03-04T03:02:49.617Z,25.90
2018-03-04T03:03:49.609Z,23.50
2018-03-04T03:04:49.604Z,25.10
2018-03-04T03:05:49.592Z,26.20
2018-03-04T03:06:49.622Z,28.20
2018-03-04T03:07:50.120Z,26.80
2018-03-04T03:08:50.301Z,25.40
2018-03-04T03:09:49.555Z,26.80
2018-03-04T03:10:49.544Z,25.70
2018-03-04T03:11:49.573Z,26.80
2018-03-04T03:12:49.526Z,26.70
2018-03-04T03:13:49.520Z,27.30
2018-03-04T03:14:49.510Z,25.90
2018-03-04T03:15:49.501Z,25.60
2018-03-04T03:16:49.535Z,25.10
2018-03-04T03:17:49.522Z,27.10
2018-03-04T03:18:49.472Z,27.10
2018-03-04T03:19:49.464Z,26.10
2018-03-04T03:20:49.493Z,26.60
2018-03-04T03:21:49.445Z,27.20
2018-03-04T03:22:49.473Z,25.40
2018-03-04T03:23:49.426Z,25.30
2018-03-04T03:24:49.421Z,25.00
2018-03-04T03:25:49.435Z,26.70
2018-03-04T03:26:49.468Z,25.80
2018-03-04T03:27:49.418Z,25.60
2018-03-04T03:28:49.409Z,27.50
2018-03-04T03:29:49.399Z,26.60
2018-03-04T03:30:49.396Z,24.60
2018-03-04T03:31:49.441Z,26.30
2018-03-04T03:32:49.372Z,26.30
2018-03-04T03:33:49.365Z,21.70
2018-03-04T03:34:49.358Z,26.40
2018-03-04T03:35:49.387Z,24.30
2018-03-04T03:36:49.341Z,25.40
2018-03-04T03:37:49.368Z,27.20
2018-03-04T03:38:49.321Z,23.30
2018-03-04T03:39:49.314Z,25.50
2018-03-04T03:40:49.304Z,27.20
2018-03-04T03:41:49.296Z,26.40
2018-03-04T03:42:49.346Z,26.20
2018-03-04T03:43:49.276Z,25.40
2018-03-04T03:44:49.270Z,25.50
2018-03-04T03:45:49.297Z,27.00
2018-03-04T03:46:49.249Z,25.60
2018-03-04T03:47:49.245Z,26.40
2018-03-04T03:48:49.273Z,23.90
2018-03-04T03:49:49.226Z,26.10
2018-03-04T03:50:49.217Z,26.00
2018-03-04T03:51:49.207Z,25.30
2018-03-04T03:52:49.204Z,27.10
2018-03-04T03:53:49.250Z,26.50
2018-03-04T03:54:49.181Z,24.00
2018-03-04T03:55:49.215Z,26.70
2018-03-04T03:56:49.167Z,15.70
2018-03-04T03:57:49.157Z,22.70
2018-03-04T03:58:49.152Z,22.10
2018-03-04T03:59:49.179Z,23.60
2018-03-04T04:00:49.130Z,19.30
2018-03-04T04:01:49.122Z,24.30
2018-03-04T04:02:49.113Z,24.30
2018-03-04T04:03:49.105Z,24.60
2018-03-04T04:04:49.140Z,27.10
2018-03-04T04:05:49.090Z,18.10
2018-03-04T04:06:49.081Z,19.00
2018-03-04T04:07:49.076Z,23.60
2018-03-04T04:08:49.066Z,19.90
2018-03-04T04:09:49.099Z,22.80
2018-03-04T04:10:49.049Z,26.10
2018-03-04T04:11:49.039Z,26.30
2018-03-04T04:12:49.034Z,26.10
2018-03-04T04:13:49.026Z,20.40
2018-03-04T04:14:49.055Z,18.50
2018-03-04T04:15:49.008Z,26.70
2018-03-04T04:16:49.004Z,26.20
2018-03-04T04:17:48.997Z,26.20
2018-03-04T04:18:48.984Z,16.50
2018-03-04T04:19:49.034Z,20.80
2018-03-04T04:20:48.969Z,21.50
2018-03-04T04:21:48.959Z,26.30
2018-03-04T04:22:48.950Z,22.70
2018-03-04T04:23:49.926Z,32.30
2018-03-04T04:24:48.975Z,26.20
2018-03-04T04:25:48.968Z,21.10
2018-03-04T04:26:48.919Z,24.00
2018-03-04T04:27:48.916Z,27.70
2018-03-04T04:28:48.902Z,22.60
2018-03-04T04:29:48.904Z,19.40
2018-03-04T04:30:48.927Z,18.60
2018-03-04T04:31:48.891Z,26.80
2018-03-04T04:32:48.874Z,22.20
2018-03-04T04:33:48.868Z,29.80
2018-03-04T04:34:48.862Z,26.40
2018-03-04T04:35:48.912Z,26.30
2018-03-04T04:36:48.843Z,21.00
2018-03-04T04:37:48.837Z,28.00
2018-03-04T04:38:48.827Z,28.20
2018-03-04T04:39:48.858Z,27.60
2018-03-04T04:40:48.852Z,29.00
2018-03-04T04:41:48.807Z,27.70
2018-03-04T04:42:49.646Z,22.60
2018-03-04T04:43:48.792Z,25.20
2018-03-04T04:44:48.786Z,25.60
2018-03-04T04:45:48.813Z,29.40
2018-03-04T04:46:48.770Z,16.60
2018-03-04T04:47:48.761Z,30.00
2018-03-04T04:48:48.756Z,25.40
2018-03-04T04:49:48.747Z,27.40
2018-03-04T04:50:48.778Z,29.90
2018-03-04T04:51:48.737Z,27.00
2018-03-04T04:52:48.724Z,28.30
2018-03-04T04:53:48.720Z,24.90
2018-03-04T04:54:48.710Z,25.60
2018-03-04T04:55:48.760Z,25.50
2018-03-04T04:56:48.697Z,25.90
2018-03-04T04:57:48.690Z,29.50
2018-03-04T04:58:48.679Z,28.40
2018-03-04T04:59:48.674Z,24.30
2018-03-04T05:00:48.704Z,23.90
2018-03-04T05:01:48.697Z,28.30
2018-03-04T05:02:49.416Z,28.90
2018-03-04T05:03:48.645Z,29.00
2018-03-04T05:04:48.635Z,28.60
2018-03-04T05:05:48.630Z,24.40
2018-03-04T05:06:48.661Z,27.80
2018-03-04T05:07:49.210Z,23.70
2018-03-04T05:08:48.609Z,27.60
2018-03-04T05:09:48.601Z,26.50
2018-03-04T05:10:48.593Z,23.20
2018-03-04T05:11:48.626Z,27.50
2018-03-04T05:12:48.583Z,27.80
2018-03-04T05:13:48.569Z,26.60
2018-03-04T05:14:48.562Z,26.80
2018-03-04T05:15:48.600Z,21.00
2018-03-04T05:16:48.550Z,23.80
2018-03-04T05:17:48.544Z,19.50
2018-03-04T05:18:48.954Z,26.30
2018-03-04T05:19:48.526Z,22.00
2018-03-04T05:20:48.558Z,28.20
2018-03-04T05:21:48.510Z,27.40
2018-03-04T05:22:48.507Z,27.60
2018-03-04T05:23:48.503Z,21.40
2018-03-04T05:24:48.502Z,20.10
2018-03-04T05:25:48.552Z,19.10
2018-03-04T05:26:48.478Z,25.10
2018-03-04T05:27:48.473Z,30.10
2018-03-04T05:28:48.462Z,26.20
2018-03-04T05:29:48.468Z,16.80
2018-03-04T05:30:48.486Z,27.20
2018-03-04T05:31:48.437Z,23.60
2018-03-04T05:32:48.431Z,17.30
2018-03-04T05:33:48.425Z,23.80
2018-03-04T05:34:48.414Z,26.30
2018-03-04T05:35:48.445Z,25.20
2018-03-04T05:36:48.401Z,25.70
2018-03-04T05:37:48.397Z,30.10
2018-03-04T05:38:48.392Z,23.40
2018-03-04T05:39:48.381Z,31.60
2018-03-04T05:40:48.456Z,27.20
2018-03-04T05:41:48.364Z,29.30
2018-03-04T05:42:48.430Z,23.50
2018-03-04T05:43:48.349Z,31.00
2018-03-04T05:44:48.342Z,31.20
2018-03-04T05:45:48.392Z,33.80
2018-03-04T05:46:48.327Z,32.50
2018-03-04T05:47:48.318Z,32.20
2018-03-04T05:48:48.311Z,34.40
2018-03-04T05:49:48.303Z,31.00
2018-03-04T05:50:48.336Z,27.40
2018-03-04T05:51:48.290Z,29.80
2018-03-04T05:52:48.287Z,33.30
2018-03-04T05:53:48.275Z,32.20
2018-03-04T05:54:48.314Z,32.60
2018-03-04T05:55:48.261Z,32.60
2018-03-04T05:56:48.252Z,34.40
2018-03-04T05:57:48.246Z,29.00
2018-03-04T05:58:48.236Z,34.30
2018-03-04T05:59:49.091Z,31.90
2018-03-04T06:00:48.225Z,26.50
2018-03-04T06:01:48.215Z,33.00
2018-03-04T06:02:48.208Z,32.80
2018-03-04T06:03:48.200Z,32.90
2018-03-04T06:04:48.229Z,34.60
2018-03-04T06:05:48.185Z,34.10
2018-03-04T06:06:48.178Z,34.10
2018-03-04T06:07:48.169Z,35.50
2018-03-04T06:08:48.164Z,35.10
2018-03-04T06:09:48.199Z,35.50
2018-03-04T06:10:48.160Z,32.00
2018-03-04T06:11:48.171Z,20.40
2018-03-04T06:12:48.140Z,28.30
2018-03-04T06:13:48.134Z,34.10
2018-03-04T06:14:48.197Z,27.60
2018-03-04T06:15:48.216Z,32.30
2018-03-04T06:16:49.041Z,22.80
2018-03-04T06:17:48.100Z,33.10
2018-03-04T06:18:48.146Z,20.00
2018-03-04T06:19:48.083Z,16.00
2018-03-04T06:20:48.121Z,31.60
2018-03-04T06:21:48.071Z,31.30
2018-03-04T06:22:48.060Z,26.20
2018-03-04T06:23:48.115Z,26.50
2018-03-04T06:24:48.117Z,27.60
2018-03-04T06:25:48.041Z,35.00
2018-03-04T06:26:48.032Z,24.80
2018-03-04T06:27:48.026Z,27.60
2018-03-04T06:28:48.020Z,32.80
2018-03-04T06:29:48.050Z,34.20
2018-03-04T06:30:48.003Z,31.40
2018-03-04T06:31:47.998Z,31.70
2018-03-04T06:32:47.995Z,33.10
2018-03-04T06:33:48.029Z,33.90
2018-03-04T06:34:47.975Z,32.30
2018-03-04T06:35:47.974Z,28.80
2018-03-04T06:36:47.964Z,20.70
2018-03-04T06:37:47.956Z,27.00
2018-03-04T06:38:47.991Z,20.30
2018-03-04T06:39:47.944Z,23.60
2018-03-04T06:40:47.933Z,21.70
2018-03-04T06:41:47.925Z,32.80
2018-03-04T06:42:47.922Z,23.10
2018-03-04T06:43:47.970Z,24.70
2018-03-04T06:44:47.966Z,28.30
2018-03-04T06:45:47.897Z,23.20
2018-03-04T06:46:47.897Z,31.80
2018-03-04T06:47:47.889Z,22.50
2018-03-04T06:48:47.882Z,26.40
2018-03-04T06:49:47.911Z,27.90
2018-03-04T06:50:47.864Z,23.30
2018-03-04T06:51:47.857Z,25.70
2018-03-04T06:52:47.851Z,19.90
2018-03-04T06:53:47.901Z,20.50
2018-03-04T06:54:47.875Z,23.20
2018-03-04T06:55:47.830Z,35.10
2018-03-04T06:56:47.862Z,24.00
2018-03-04T06:57:47.819Z,24.60
2018-03-04T06:58:47.809Z,28.40
2018-03-04T06:59:47.841Z,25.40
2018-03-04T07:00:47.795Z,30.30
2018-03-04T07:01:47.788Z,25.80
2018-03-04T07:02:47.782Z,19.00
2018-03-04T07:03:47.830Z,24.60
2018-03-04T07:04:47.807Z,25.70
2018-03-04T07:05:47.765Z,28.30
2018-03-04T07:06:47.756Z,27.40
2018-03-04T07:07:47.749Z,31.50
2018-03-04T07:08:47.780Z,26.50
2018-03-04T07:09:47.731Z,29.70
2018-03-04T07:10:47.724Z,30.50
2018-03-04T07:11:47.722Z,26.40
2018-03-04T07:12:47.714Z,22.10
2018-03-04T07:13:47.763Z,36.00
2018-03-04T07:14:47.740Z,23.50
2018-03-04T07:15:47.696Z,23.20
2018-03-04T07:16:47.703Z,27.30
2018-03-04T07:17:47.678Z,33.70
2018-03-04T07:18:47.769Z,29.80
2018-03-04T07:19:47.701Z,27.40
2018-03-04T07:20:47.661Z,25.30
2018-03-04T07:21:47.654Z,33.00
2018-03-04T07:22:47.680Z,34.20
2018-03-04T07:23:47.643Z,28.90
2018-03-04T07:24:47.729Z,30.80
2018-03-04T07:25:47.632Z,32.80
2018-03-04T07:26:47.620Z,35.40
2018-03-04T07:27:47.619Z,35.10
2018-03-04T07:28:47.605Z,34.90
2018-03-04T07:29:47.658Z,34.60
2018-03-04T07:30:47.688Z,34.10
2018-03-04T07:31:47.589Z,37.30
2018-03-04T07:32:48.127Z,36.10
2018-03-04T07:33:47.577Z,34.00
2018-03-04T07:34:47.613Z,34.00
2018-03-04T07:35:47.583Z,35.80
2018-03-04T07:36:47.562Z,27.90
2018-03-04T07:37:47.552Z,35.30
2018-03-04T07:38:47.548Z,34.80
2018-03-04T07:39:47.580Z,30.30
2018-03-04T07:40:47.537Z,35.60
2018-03-04T07:41:47.531Z,36.00
2018-03-04T07:42:47.525Z,35.20
2018-03-04T07:43:47.524Z,31.50
2018-03-04T07:44:47.570Z,36.00
2018-03-04T07:45:47.508Z,33.90
2018-03-04T07:46:47.502Z,34.60
2018-03-04T07:47:47.496Z,30.70
2018-03-04T07:48:47.491Z,36.00
2018-03-04T07:49:47.488Z,33.00
2018-03-04T07:50:47.521Z,35.50
2018-03-04T07:51:47.480Z,35.50
2018-03-04T07:52:47.475Z,29.40
2018-03-04T07:53:47.467Z,35.80
2018-03-04T07:54:47.467Z,32.00
2018-03-04T07:55:47.511Z,35.00
2018-03-04T07:56:47.492Z,41.90
2018-03-04T07:57:47.445Z,30.20
2018-03-04T07:58:47.443Z,33.70
2018-03-04T07:59:47.475Z,36.50
2018-03-04T08:00:47.471Z,10.70
2018-03-04T08:01:47.469Z,37.30
2018-03-04T08:02:47.983Z,24.80
2018-03-04T08:03:47.415Z,29.40
2018-03-04T08:04:47.410Z,34.00
2018-03-04T08:05:47.406Z,28.80
2018-03-04T08:06:47.458Z,25.00
2018-03-04T08:07:47.403Z,33.30
2018-03-04T08:08:47.394Z,21.30
2018-03-04T08:09:47.391Z,33.90
2018-03-04T08:10:47.421Z,33.30
2018-03-04T08:11:47.418Z,35.60
2018-03-04T08:12:47.427Z,36.80
2018-03-04T08:13:47.379Z,37.20
2018-03-04T08:14:47.373Z,33.80
2018-03-04T08:15:48.171Z,35.20
2018-03-04T08:16:47.368Z,35.80
2018-03-04T08:17:47.409Z,31.00
2018-03-04T08:18:47.369Z,37.10
2018-03-04T08:19:47.357Z,35.60
2018-03-04T08:20:47.356Z,41.00
2018-03-04T08:21:47.357Z,38.40
2018-03-04T08:22:47.422Z,35.80
2018-03-04T08:23:47.363Z,37.70
2018-03-04T08:24:47.345Z,38.10
2018-03-04T08:25:47.401Z,34.20
2018-03-04T08:26:47.341Z,39.20
2018-03-04T08:27:47.337Z,37.00
2018-03-04T08:28:47.339Z,32.40
2018-03-04T08:29:47.336Z,29.00
2018-03-04T08:30:47.370Z,39.00
2018-03-04T08:31:47.330Z,29.50
2018-03-04T08:32:47.370Z,38.70
2018-03-04T08:33:47.323Z,40.30
2018-03-04T08:34:47.319Z,43.30
2018-03-04T08:35:47.316Z,45.00
2018-03-04T08:36:47.313Z,38.10
2018-03-04T08:37:47.371Z,38.60
2018-03-04T08:38:47.309Z,40.10
2018-03-04T08:39:47.303Z,39.20
2018-03-04T08:40:47.340Z,40.10
2018-03-04T08:41:47.300Z,39.30
2018-03-04T08:42:47.294Z,38.10
2018-03-04T08:43:47.331Z,38.50
2018-03-04T08:44:47.289Z,35.20
2018-03-04T08:45:47.292Z,29.50
2018-03-04T08:46:47.286Z,31.60
2018-03-04T08:47:47.281Z,38.40
2018-03-04T08:48:47.316Z,33.00
2018-03-04T08:49:47.274Z,35.20
2018-03-04T08:50:47.285Z,30.20
2018-03-04T08:51:47.272Z,34.50
2018-03-04T08:52:47.271Z,37.10
2018-03-04T08:53:47.305Z,23.70
2018-03-04T08:54:47.263Z,39.80
2018-03-04T08:55:47.261Z,38.60
2018-03-04T08:56:47.263Z,38.00
2018-03-04T08:57:47.266Z,36.50
2018-03-04T08:58:47.307Z,38.10
2018-03-04T08:59:47.255Z,38.10
2018-03-04T09:00:47.255Z,30.60
2018-03-04T09:01:47.254Z,35.90
2018-03-04T09:02:47.252Z,38.90
2018-03-04T09:03:47.310Z,37.10
2018-03-04T09:04:47.256Z,36.30
2018-03-04T09:05:47.253Z,36.90
2018-03-04T09:06:47.903Z,37.30
2018-03-04T09:07:47.311Z,34.40
2018-03-04T09:08:47.257Z,36.10
2018-03-04T09:09:47.257Z,36.00
2018-03-04T09:10:47.265Z,35.40
2018-03-04T09:11:47.265Z,36.20
2018-03-04T09:12:47.267Z,33.10
2018-03-04T09:13:47.309Z,37.60
2018-03-04T09:14:47.281Z,35.30
2018-03-04T09:15:47.279Z,27.40
2018-03-04T09:16:47.287Z,27.10
2018-03-04T09:17:47.289Z,31.90
2018-03-04T09:18:47.334Z,35.00
2018-03-04T09:19:47.316Z,36.60
2018-03-04T09:20:47.305Z,32.20
2018-03-04T09:21:47.309Z,34.20
2018-03-04T09:22:47.316Z,28.10
2018-03-04T09:23:47.376Z,34.70
2018-03-04T09:24:47.325Z,27.30
2018-03-04T09:25:47.328Z,27.20
2018-03-04T09:26:47.372Z,34.40
2018-03-04T09:27:47.338Z,34.70
2018-03-04T09:28:47.346Z,34.70
2018-03-04T09:29:47.402Z,36.50
2018-03-04T09:30:47.361Z,35.20
2018-03-04T09:31:47.371Z,32.20
2018-03-04T09:32:47.788Z,37.70
2018-03-04T09:33:47.377Z,37.50
2018-03-04T09:34:47.423Z,34.00
2018-03-04T09:35:47.392Z,32.70
2018-03-04T09:36:47.402Z,36.50
2018-03-04T09:37:47.419Z,34.50
2018-03-04T09:38:47.416Z,37.10
2018-03-04T09:39:47.467Z,34.60
2018-03-04T09:40:47.434Z,32.10
2018-03-04T09:41:47.442Z,34.70
2018-03-04T09:42:47.448Z,38.60
2018-03-04T09:43:47.456Z,34.10
2018-03-04T09:44:47.507Z,29.10
2018-03-04T09:45:47.506Z,29.80
2018-03-04T09:46:47.482Z,26.20
2018-03-04T09:47:47.490Z,25.90
2018-03-04T09:48:47.497Z,29.90
2018-03-04T09:49:47.544Z,28.50
2018-03-04T09:50:47.512Z,38.90
2018-03-04T09:51:47.522Z,33.80
2018-03-04T09:52:47.528Z,33.60
2018-03-04T09:53:47.539Z,44.90
2018-03-04T09:54:47.602Z,36.10
2018-03-04T09:55:47.552Z,38.60
2018-03-04T09:56:47.616Z,33.50
2018-03-04T09:57:47.582Z,25.60
2018-03-04T09:58:47.579Z,29.90
2018-03-04T09:59:47.585Z,32.40
2018-03-04T10:00:47.627Z,32.00
2018-03-04T10:01:47.600Z,27.60
2018-03-04T10:02:47.607Z,37.40
2018-03-04T10:03:47.614Z,37.30
2018-03-04T10:04:47.619Z,25.00
2018-03-04T10:05:47.665Z,34.50
2018-03-04T10:06:47.632Z,32.20
2018-03-04T10:07:47.635Z,30.20
2018-03-04T10:08:47.663Z,32.40
2018-03-04T10:09:47.645Z,34.70
2018-03-04T10:10:47.706Z,38.20
2018-03-04T10:11:47.650Z,38.80
2018-03-04T10:12:47.658Z,38.70
2018-03-04T10:13:47.657Z,38.40
2018-03-04T10:14:47.661Z,41.10
2018-03-04T10:15:47.705Z,36.30
2018-03-04T10:16:47.668Z,32.60
2018-03-04T10:17:47.671Z,31.80
2018-03-04T10:18:47.673Z,36.70
2018-03-04T10:19:47.679Z,33.20
2018-03-04T10:20:47.720Z,39.70
2018-03-04T10:21:47.685Z,31.80
2018-03-04T10:22:47.690Z,35.60
2018-03-04T10:23:47.692Z,37.80
2018-03-04T10:24:47.699Z,30.00
2018-03-04T10:25:47.758Z,24.10
2018-03-04T10:26:47.705Z,27.60
2018-03-04T10:27:47.711Z,29.50
2018-03-04T10:28:47.712Z,32.80
2018-03-04T10:29:47.718Z,32.60
2018-03-04T10:30:47.782Z,35.20
2018-03-04T10:31:47.731Z,27.20
2018-03-04T10:32:47.733Z,34.20
2018-03-04T10:33:47.741Z,30.70
2018-03-04T10:34:47.749Z,40.60
2018-03-04T10:35:47.815Z,25.70
2018-03-04T10:36:47.762Z,31.80
2018-03-04T10:37:47.766Z,32.40
2018-03-04T10:38:47.778Z,31.00
2018-03-04T10:39:47.782Z,36.50
2018-03-04T10:40:47.825Z,30.50
2018-03-04T10:41:47.835Z,31.30
2018-03-04T10:42:47.796Z,38.00
2018-03-04T10:43:47.801Z,33.70
2018-03-04T10:44:47.809Z,33.70
2018-03-04T10:45:47.810Z,33.70
2018-03-04T10:46:47.869Z,38.30
2018-03-04T10:47:47.816Z,35.60
2018-03-04T10:48:47.826Z,37.00
2018-03-04T10:49:47.828Z,38.40
2018-03-04T10:50:47.865Z,40.90
2018-03-04T10:51:47.827Z,35.90
2018-03-04T10:52:47.829Z,41.70
2018-03-04T10:53:47.835Z,35.40
2018-03-04T10:54:47.833Z,36.50
2018-03-04T10:55:47.879Z,30.90
2018-03-04T10:56:47.837Z,36.80
2018-03-04T10:57:47.837Z,35.40
2018-03-04T10:58:47.839Z,33.90
2018-03-04T10:59:47.840Z,35.60
2018-03-04T11:00:47.880Z,34.50
2018-03-04T11:01:47.845Z,30.00
2018-03-04T11:02:47.843Z,33.70
2018-03-04T11:03:47.843Z,33.50
2018-03-04T11:04:47.845Z,32.70
2018-03-04T11:05:47.902Z,32.40
2018-03-04T11:06:48.778Z,30.70
2018-03-04T11:07:47.845Z,31.80
2018-03-04T11:08:47.849Z,33.00
2018-03-04T11:09:47.900Z,30.80
2018-03-04T11:10:47.893Z,32.60
2018-03-04T11:11:47.849Z,32.70
2018-03-04T11:12:47.848Z,31.90
2018-03-04T11:13:47.853Z,32.20
2018-03-04T11:14:47.852Z,30.40
2018-03-04T11:15:48.070Z,34.30
2018-03-04T11:16:47.854Z,33.40
2018-03-04T11:17:47.855Z,35.30
2018-03-04T11:18:47.854Z,33.10
2018-03-04T11:19:47.853Z,33.30
2018-03-04T11:20:48.509Z,31.70
2018-03-04T11:21:47.857Z,32.80
2018-03-04T11:22:47.864Z,33.50
2018-03-04T11:23:47.861Z,34.40
2018-03-04T11:24:47.872Z,29.80
2018-03-04T11:25:47.899Z,30.40
2018-03-04T11:26:47.864Z,33.10
2018-03-04T11:27:47.870Z,32.30
2018-03-04T11:28:47.917Z,33.30
2018-03-04T11:29:47.872Z,32.60
2018-03-04T11:30:47.915Z,32.20
2018-03-04T11:31:47.878Z,29.20
2018-03-04T11:32:47.881Z,30.30
2018-03-04T11:33:47.885Z,33.90
2018-03-04T11:34:47.888Z,36.60
2018-03-04T11:35:47.935Z,29.60
2018-03-04T11:36:47.897Z,33.60
2018-03-04T11:37:47.899Z,32.70
2018-03-04T11:38:47.901Z,32.20
2018-03-04T11:39:47.907Z,27.30
2018-03-04T11:40:47.959Z,33.50
2018-03-04T11:41:47.910Z,32.00
2018-03-04T11:42:47.941Z,31.30
2018-03-04T11:43:47.915Z,31.20
2018-03-04T11:44:47.923Z,31.40
2018-03-04T11:45:47.923Z,31.30
2018-03-04T11:46:47.963Z,29.20
2018-03-04T11:47:47.932Z,28.50
2018-03-04T11:48:47.934Z,31.10
2018-03-04T11:49:47.937Z,27.00
2018-03-04T11:50:47.940Z,32.90
2018-03-04T11:51:47.982Z,31.50
2018-03-04T11:52:47.946Z,31.50
2018-03-04T11:53:48.363Z,32.00
2018-03-04T11:54:47.954Z,29.90
2018-03-04T11:55:47.956Z,28.50
2018-03-04T11:56:47.999Z,27.00
2018-03-04T11:57:47.962Z,30.30
2018-03-04T11:58:47.965Z,28.70
2018-03-04T11:59:47.968Z,30.80
2018-03-04T12:00:47.971Z,29.80
2018-03-04T12:01:48.041Z,29.80
2018-03-04T12:02:47.980Z,26.90
2018-03-04T12:03:47.986Z,25.60
2018-03-04T12:04:47.989Z,26.20
2018-03-04T12:05:47.994Z,29.50
2018-03-04T12:06:48.041Z,29.00
2018-03-04T12:07:48.044Z,33.30
2018-03-04T12:08:48.008Z,31.10
2018-03-04T12:09:48.013Z,29.70
2018-03-04T12:10:48.017Z,28.00
2018-03-04T12:11:48.023Z,30.50
2018-03-04T12:12:48.071Z,25.00
2018-03-04T12:13:48.033Z,19.70
2018-03-04T12:14:48.041Z,28.90
2018-03-04T12:15:48.043Z,27.00
2018-03-04T12:16:48.048Z,27.00
2018-03-04T12:17:48.109Z,30.00
2018-03-04T12:18:48.058Z,25.00
2018-03-04T12:19:48.060Z,27.20
2018-03-04T12:20:48.126Z,28.70
2018-03-04T12:21:48.070Z,30.40
2018-03-04T12:22:48.083Z,32.30
2018-03-04T12:23:48.076Z,28.80
2018-03-04T12:24:48.082Z,29.70
2018-03-04T12:25:48.124Z,26.90
2018-03-04T12:26:48.089Z,28.20
2018-03-04T12:27:48.130Z,29.60
2018-03-04T12:28:48.100Z,31.90
2018-03-04T12:29:48.101Z,30.20
2018-03-04T12:30:48.115Z,29.70
2018-03-04T12:31:48.108Z,29.40
2018-03-04T12:32:48.172Z,28.80
2018-03-04T12:33:48.120Z,28.20
2018-03-04T12:34:48.124Z,29.30
2018-03-04T12:35:48.185Z,32.10
2018-03-04T12:36:48.137Z,29.20
2018-03-04T12:37:48.144Z,26.10
2018-03-04T12:38:48.150Z,24.70
2018-03-04T12:39:48.158Z,24.70
2018-03-04T12:40:48.221Z,28.10
2018-03-04T12:41:48.174Z,26.40
2018-03-04T12:42:48.179Z,26.60
2018-03-04T12:43:48.191Z,26.00
2018-03-04T12:44:48.241Z,26.50
2018-03-04T12:45:48.209Z,25.80
2018-03-04T12:46:48.479Z,25.30
2018-03-04T12:47:48.233Z,28.40
2018-03-04T12:48:48.241Z,29.30
2018-03-04T12:49:48.294Z,27.20
2018-03-04T12:50:48.262Z,28.20
2018-03-04T12:51:48.271Z,26.60
2018-03-04T12:52:48.284Z,26.40